ADDS METAR Data INFO
IDs: Format: Raw Decoded Include TAF

Data at: 0900 UTC 20 Oct 2017

KSYN 200852Z AUTO 19007KT 10SM CLR 15/10 A2991 RMK AO2 T01480102
KSYN 200833Z AUTO 19008KT 10SM CLR 15/10 A2991 RMK AO2 T01500102
KSYN 200812Z AUTO 18009KT 10SM CLR 15/10 A2991 RMK AO2 T01500102
KSYN 200752Z AUTO 18008KT 10SM CLR 15/10 A2992 RMK AO2 T01520102
KSYN 200733Z AUTO 19009G14KT 10SM CLR 16/10 A2992 RMK AO2 T01550102
KSYN 200712Z AUTO 19010G16KT 10SM CLR 16/10 A2992 RMK AO2 T01580102
KSYN 200652Z AUTO 19009G14KT 10SM CLR 16/10 A2992 RMK AO2 T01600103
KSYN 200633Z AUTO 19007KT 10SM CLR 15/10 A2993 RMK AO2 T01470099
KSYN 200612Z AUTO 18007KT 10SM CLR 15/10 A2992 RMK AO2 T01450095
KSYN 200552Z AUTO 18007KT 10SM CLR 15/09 A2993 RMK AO2 T01450091
KSYN 200533Z AUTO 19007KT 10SM CLR 15/09 A2993 RMK AO2 T01500088
KSYN 200512Z AUTO 19007KT 10SM CLR 15/08 A2993 RMK AO2 T01510083
KSYN 200452Z AUTO 19007KT 10SM CLR 15/08 A2993 RMK AO2 T01520076
KSYN 200433Z AUTO 19006KT 10SM CLR 15/07 A2993 RMK AO2 T01530070
KSYN 200412Z AUTO 19007KT 10SM CLR 16/06 A2994 RMK AO2 T01550063
KSYN 200352Z AUTO 19008KT 10SM CLR 16/06 A2994 RMK AO2 T01570056
KSYN 200333Z AUTO 19007KT 10SM CLR 16/05 A2994 RMK AO2 T01580050
KSYN 200312Z AUTO 19008G14KT 10SM CLR 16/05 A2994 RMK AO2 T01600045
KSYN 200252Z AUTO 18008KT 10SM CLR 16/04 A2994 RMK AO2 T01600041
KSYN 200233Z AUTO 19008KT 10SM CLR 16/04 A2994 RMK AO2 T01620037
KSYN 200212Z AUTO 18008G14KT 10SM CLR 16/03 A2994 RMK AO2 T01620034
KSYN 200152Z AUTO 17009KT 10SM CLR 16/03 A2994 RMK AO2 T01600031
KSYN 200133Z AUTO 17008KT 10SM CLR 16/03 A2994 RMK AO2 T01600028
KSYN 200112Z AUTO 17009G14KT 10SM CLR 16/03 A2995 RMK AO2 T01610028
KSYN 200052Z AUTO 17009KT 10SM CLR 17/03 A2995 RMK AO2 T01660026
KSYN 200033Z AUTO 17008KT 10SM CLR 17/03 A2995 RMK AO2 T01670027
KSYN 200012Z AUTO 18005KT 10SM CLR 17/03 A2996 RMK AO2 T01720025
KSYN 192352Z AUTO 18005KT 10SM CLR 17/02 A2996 RMK AO2 T01730024
KSYN 192333Z AUTO 18006KT 10SM CLR 18/02 A2996 RMK AO2 T01830020
KSYN 192312Z AUTO 18005KT 10SM CLR 19/02 A2997 RMK AO2 T01910017
KSYN 192252Z AUTO 19006KT 10SM CLR 21/02 A2996 RMK AO2 T02050015
KSYN 192233Z AUTO 18007KT 10SM CLR 21/01 A2996 RMK AO2 T02120012
KSYN 192212Z AUTO 18008KT 10SM CLR 22/01 A2996 RMK AO2 T02160012
KSYN 192152Z AUTO 18008KT 10SM CLR 22/01 A2997 RMK AO2 T02220005
KSYN 192133Z AUTO 18009G16KT 10SM CLR 23/00 A2997 RMK AO2 T02260004
KSYN 192112Z AUTO 19010G15KT 10SM CLR 23/01 A2998 RMK AO2 T02300007
KSYN 192052Z AUTO 19008G16KT 10SM CLR 23/00 A2999 RMK AO2 T02290004
KSYN 192033Z AUTO 18010G16KT 10SM CLR 23/00 A3000 RMK AO2 T02300003
KSYN 192012Z AUTO 20010G16KT 10SM CLR 23/00 A3000 RMK AO2 T02320002
KSYN 191952Z AUTO 18009G15KT 10SM CLR 23/00 A3000 RMK AO2 T02310002
KSYN 191933Z AUTO 19010G17KT 10SM CLR 23/00 A3001 RMK AO2 T02290000
KSYN 191912Z AUTO 18008G15KT 10SM CLR 23/00 A3001 RMK AO2 T02260002
KSYN 191852Z AUTO 18009G16KT 150V210 10SM CLR 22/00 A3002 RMK AO2 T02240001
KSYN 191832Z AUTO 20011G17KT 10SM CLR 22/00 A3003 RMK AO2 T02191003
KSYN 191757Z AUTO 19009G14KT 10SM CLR 22/00 A3005 RMK AO2 T02151004 10215 20020
KSYN 191733Z AUTO 17009G14KT 10SM CLR 21/00 A3005 RMK AO2 T02051005
KSYN 191712Z AUTO 16006KT 10SM CLR 19/00 A3006 RMK AO2 T01941003
KSYN 191652Z AUTO 17010KT 10SM CLR 19/00 A3007 RMK AO2 T01851004
KSYN 191633Z AUTO 16007KT 10SM CLR 17/00 A3007 RMK AO2 T01730001
KSYN 191612Z AUTO 18004KT 10SM CLR 16/01 A3008 RMK AO2 T01610008
KSYN 191552Z AUTO 18006KT 10SM CLR 15/01 A3008 RMK AO2 T01540012
KSYN 191532Z AUTO 17007KT 10SM CLR 14/02 A3008 RMK AO2 T01430016
KSYN 191512Z AUTO 19006KT 10SM CLR 13/01 A3008 RMK AO2 T01340014
KSYN 191452Z AUTO 20003KT 10SM CLR 12/04 A3008 RMK AO2 T01170036
KSYN 191432Z AUTO 20004KT 10SM CLR 11/04 A3008 RMK AO2 T01050040
KSYN 191412Z AUTO 00000KT 10SM CLR 09/03 A3008 RMK AO2 T00850031
KSYN 191352Z AUTO 20003KT 10SM CLR 07/03 A3008 RMK AO2 T00650027
KSYN 191332Z AUTO 21004KT 10SM CLR 05/02 A3007 RMK AO2 T00450019
KSYN 191312Z AUTO 20004KT 10SM CLR 04/01 A3006 RMK AO2 T00380011
KSYN 191252Z AUTO 20003KT 10SM CLR 03/01 A3006 RMK AO2 T00310005
KSYN 191232Z AUTO 00000KT 10SM CLR 02/00 A3006 RMK AO2 T00200001
KSYN 191212Z AUTO 00000KT 10SM CLR 02/00 A3006 RMK AO2 T00230001
KSYN 191152Z AUTO 00000KT 10SM CLR 03/00 A3005 RMK AO2 T00300004
KSYN 191132Z AUTO 00000KT 10SM CLR 02/00 A3006 RMK AO2 T00240001
KSYN 191112Z AUTO 00000KT 10SM CLR 03/00 A3005 RMK AO2 T00270002
KSYN 191052Z AUTO 00000KT 10SM CLR 03/00 A3005 RMK AO2 T00320004
KSYN 191032Z AUTO 19003KT 10SM CLR 03/01 A3005 RMK AO2 T00330005
KSYN 191012Z AUTO 00000KT 10SM CLR 04/00 A3004 RMK AO2 T00420004
KSYN 190952Z AUTO 20003KT 10SM CLR 04/01 A3004 RMK AO2 T00370006
KSYN 190933Z AUTO 19004KT 10SM CLR 04/01 A3004 RMK AO2 T00360007
KSYN 190912Z AUTO 00000KT 10SM CLR 04/01 A3004 RMK AO2 T00380007
KSYN 190852Z AUTO 20003KT 10SM CLR 04/01 A3003 RMK AO2 T00420007
KSYN 190833Z AUTO 19003KT 10SM CLR 05/01 A3003 RMK AO2 T00460007
KSYN 190812Z AUTO 19004KT 10SM CLR 05/01 A3003 RMK AO2 T00450007
KSYN 190752Z AUTO 00000KT 10SM CLR 05/01 A3003 RMK AO2 T00530007
KSYN 190733Z AUTO 20004KT 10SM CLR 06/00 A3003 RMK AO2 T00590002
KSYN 190712Z AUTO 20003KT 10SM CLR 05/01 A3003 RMK AO2 T00520005
KSYN 190652Z AUTO 20005KT 10SM CLR 05/01 A3003 RMK AO2 T00470014
KSYN 190632Z AUTO 00000KT 10SM CLR 05/01 A3003 RMK AO2 T00540006
KSYN 190612Z AUTO 00000KT 10SM CLR 06/00 A3002 RMK AO2 T00640002
KSYN 190553Z AUTO 00000KT 10SM CLR 07/00 A3002 RMK AO2 T00680000 10168 20065 402200065
KSYN 190532Z AUTO 26003KT 10SM CLR 08/M01 A3002 RMK AO2 T00821006
KSYN 190512Z AUTO 00000KT 10SM CLR 08/00 A3002 RMK AO2 T00801003
KSYN 190453Z AUTO 00000KT 10SM CLR 09/M01 A3002 RMK AO2 T00901011
KSYN 190432Z AUTO 00000KT 10SM CLR 09/M01 A3002 RMK AO2 T00901010
KSYN 190412Z AUTO 26004KT 10SM CLR 10/M01 A3001 RMK AO2 T01001014
KSYN 190353Z AUTO 25003KT 10SM CLR 10/M01 A3001 RMK AO2 T01021015
KSYN 190332Z AUTO 26004KT 10SM CLR 11/M02 A3001 RMK AO2 T01051017
KSYN 190312Z AUTO 26003KT 10SM CLR 11/M02 A3000 RMK AO2 T01101019
KSYN 190253Z AUTO 27005KT 10SM CLR 11/M02 A3000 RMK AO2 T01141016
KSYN 190232Z AUTO 27005KT 10SM CLR 12/M01 A2999 RMK AO2 T01201015
KSYN 190212Z AUTO 27006KT 10SM CLR 12/M02 A2999 RMK AO2 T01221018
KSYN 190153Z AUTO 28007KT 10SM CLR 12/M01 A2999 RMK AO2 T01221006
KSYN 190132Z AUTO 29008KT 10SM CLR 13/00 A2997 RMK AO2 T01251002
KSYN 190112Z AUTO 29007KT 10SM CLR 14/00 A2996 RMK AO2 T01371002
KSYN 190053Z AUTO 28008KT 10SM CLR 14/00 A2995 RMK AO2 T01390000
KSYN 190032Z AUTO 26005KT 10SM CLR 15/M02 A2995 RMK AO2 T01501023
KSYN 190012Z AUTO 27005KT 10SM CLR 16/M02 A2993 RMK AO2 T01571021
KSYN 182353Z AUTO 27007KT 10SM CLR 17/M02 A2993 RMK AO2 T01701019 10220 20170
KSYN 182332Z AUTO 25006KT 10SM CLR 18/M01 A2991 RMK AO2 T01771007
KSYN 182313Z AUTO 27007G17KT 10SM CLR 19/00 A2990 RMK AO2 T01871002
KSYN 182252Z AUTO 27005KT 10SM CLR 19/00 A2989 RMK AO2 T01860003
KSYN 182232Z AUTO 29014G18KT 10SM CLR 20/00 A2989 RMK AO2 T02000003
KSYN 182213Z AUTO 26006KT 10SM CLR 21/04 A2988 RMK AO2 T02050038
KSYN 182152Z AUTO 27010G15KT 10SM CLR 21/03 A2988 RMK AO2 T02140030
KSYN 182133Z AUTO 26008KT 10SM CLR 22/04 A2986 RMK AO2 T02190042
KSYN 182112Z AUTO 27008KT 10SM CLR 22/05 A2985 RMK AO2 T02190052